createdAt,value
2023-05-19T00:00:21.716Z,102148.84
2023-05-19T00:02:49.680Z,102151.94
2023-05-19T00:05:18.524Z,102160.34
2023-05-19T00:07:46.330Z,102163.63
2023-05-19T00:10:14.588Z,102164.06
2023-05-19T00:12:42.247Z,102160.47
2023-05-19T00:15:10.588Z,102169.25
2023-05-19T00:17:42.419Z,102166.56
2023-05-19T00:20:11.998Z,102163.81
2023-05-19T00:22:40.314Z,102157.41
2023-05-19T00:25:08.339Z,102161.00
2023-05-19T00:27:36.019Z,102167.22
2023-05-19T00:30:03.637Z,102173.16
2023-05-19T00:32:31.314Z,102170.19
2023-05-19T00:35:00.434Z,102167.75
2023-05-19T00:37:28.105Z,102156.84
2023-05-19T00:39:55.761Z,102156.69
2023-05-19T00:42:24.189Z,102156.66
2023-05-19T00:44:51.898Z,102165.84
2023-05-19T00:47:22.074Z,102161.13
2023-05-19T00:49:51.681Z,102165.16
2023-05-19T00:52:20.713Z,102164.59
2023-05-19T00:54:48.451Z,102160.97
2023-05-19T00:57:16.387Z,102162.78
2023-05-19T00:59:44.020Z,102166.66
2023-05-19T01:02:11.869Z,102160.47
2023-05-19T01:04:41.842Z,102160.50
2023-05-19T01:07:10.432Z,102169.19
2023-05-19T01:09:39.512Z,102167.41
2023-05-19T01:12:09.437Z,102164.94
2023-05-19T01:14:37.089Z,102166.94
2023-05-19T01:17:05.721Z,102163.44
2023-05-19T01:19:38.830Z,102162.66
2023-05-19T01:22:14.287Z,102153.88
2023-05-19T01:25:06.963Z,102148.72
2023-05-19T01:27:42.948Z,102150.78
2023-05-19T01:30:22.278Z,102151.22
2023-05-19T01:32:50.163Z,102153.34
2023-05-19T01:35:17.868Z,102155.78
2023-05-19T01:37:47.117Z,102156.16
2023-05-19T01:40:16.570Z,102154.59
2023-05-19T01:42:45.497Z,102160.94
2023-05-19T01:45:13.192Z,102151.41
2023-05-19T01:47:44.130Z,102162.19
2023-05-19T01:50:12.099Z,102153.31
2023-05-19T01:52:39.767Z,102162.38
2023-05-19T01:55:11.427Z,102157.88
2023-05-19T01:57:42.160Z,102161.38
2023-05-19T02:00:11.661Z,102165.28
2023-05-19T02:02:45.007Z,102156.38
2023-05-19T02:05:15.194Z,102157.00
2023-05-19T02:07:43.881Z,102169.66
2023-05-19T02:10:12.087Z,102164.88
2023-05-19T02:12:40.493Z,102154.00
2023-05-19T02:15:10.666Z,102165.75
2023-05-19T02:17:41.353Z,102153.66
2023-05-19T02:20:12.508Z,102151.78
2023-05-19T02:22:40.460Z,102147.34
2023-05-19T02:25:08.466Z,102162.56
2023-05-19T02:27:37.866Z,102159.16
2023-05-19T02:30:05.848Z,102157.66
2023-05-19T02:32:34.339Z,102161.25
2023-05-19T02:35:02.130Z,102158.41
2023-05-19T02:37:32.507Z,102155.16
2023-05-19T02:40:00.164Z,102159.47
2023-05-19T02:42:27.858Z,102149.94
2023-05-19T02:44:55.699Z,102156.97
2023-05-19T02:47:23.395Z,102149.50
2023-05-19T02:49:51.144Z,102150.72
2023-05-19T02:52:18.808Z,102150.53
2023-05-19T02:54:48.289Z,102154.53
2023-05-19T02:57:15.992Z,102150.16
2023-05-19T02:59:43.879Z,102148.91
2023-05-19T03:02:11.798Z,102140.47
2023-05-19T03:04:41.785Z,102150.09
2023-05-19T03:07:10.952Z,102143.38
2023-05-19T03:09:38.769Z,102148.19
2023-05-19T03:12:08.280Z,102139.53
2023-05-19T03:14:37.713Z,102138.19
2023-05-19T03:17:07.556Z,102141.75
2023-05-19T03:19:35.341Z,102141.50
2023-05-19T03:22:02.973Z,102134.38
2023-05-19T03:24:30.814Z,102142.72
2023-05-19T03:26:58.683Z,102145.00
2023-05-19T03:29:27.738Z,102142.47
2023-05-19T03:31:55.428Z,102147.88
2023-05-19T03:34:23.456Z,102145.44
2023-05-19T03:36:51.717Z,102145.47
2023-05-19T03:39:21.276Z,102141.63
2023-05-19T03:41:49.794Z,102138.06
2023-05-19T03:44:17.472Z,102135.59
2023-05-19T03:46:47.370Z,102152.19
2023-05-19T03:49:44.260Z,102146.16
2023-05-19T03:52:50.097Z,102133.53
2023-05-19T03:55:30.574Z,102140.59
2023-05-19T03:57:58.319Z,102139.16
2023-05-19T04:00:26.179Z,102141.09
2023-05-19T04:02:55.283Z,102147.06
2023-05-19T04:05:23.007Z,102142.44
2023-05-19T04:07:51.022Z,102139.78
2023-05-19T04:10:18.888Z,102151.22
2023-05-19T04:12:48.007Z,102140.38
2023-05-19T04:15:16.923Z,102148.09
2023-05-19T04:17:44.641Z,102145.81
2023-05-19T04:20:14.328Z,102151.31
2023-05-19T04:22:41.992Z,102142.81
2023-05-19T04:25:10.191Z,102140.69
2023-05-19T04:27:39.225Z,102144.81
2023-05-19T04:30:07.989Z,102142.31
2023-05-19T04:32:37.362Z,102154.25
2023-05-19T04:35:06.863Z,102160.84
2023-05-19T04:37:38.330Z,102151.34
2023-05-19T04:40:10.879Z,102155.09
2023-05-19T04:42:41.259Z,102161.72
2023-05-19T04:45:12.373Z,102155.28
2023-05-19T04:47:42.788Z,102156.69
2023-05-19T04:50:12.019Z,102160.88
2023-05-19T04:52:42.836Z,102159.38
2023-05-19T04:55:13.186Z,102163.13
2023-05-19T04:57:41.704Z,102170.53
2023-05-19T05:00:13.304Z,102157.69
2023-05-19T05:02:57.536Z,102153.56
2023-05-19T05:05:26.807Z,102153.16
2023-05-19T05:07:56.245Z,102159.19
2023-05-19T05:10:28.529Z,102165.59
2023-05-19T05:12:56.520Z,102157.28
2023-05-19T05:15:25.047Z,102158.94
2023-05-19T05:17:53.418Z,102160.81
2023-05-19T05:20:22.564Z,102155.72
2023-05-19T05:22:50.529Z,102165.38
2023-05-19T05:25:20.987Z,102156.09
2023-05-19T05:27:49.793Z,102165.06
2023-05-19T05:30:17.587Z,102163.81
2023-05-19T05:32:48.130Z,102167.69
2023-05-19T05:35:30.801Z,102158.66
2023-05-19T05:37:59.383Z,102164.25
2023-05-19T05:40:28.620Z,102166.78
2023-05-19T05:42:58.869Z,102163.88
2023-05-19T05:45:29.661Z,102162.94
2023-05-19T05:47:58.728Z,102163.00
2023-05-19T05:50:28.652Z,102157.25
2023-05-19T05:52:56.930Z,102153.97
2023-05-19T05:55:29.856Z,102163.13
2023-05-19T05:58:02.067Z,102156.34
2023-05-19T06:00:29.917Z,102161.59
2023-05-19T06:02:59.132Z,102160.50
2023-05-19T06:05:27.384Z,102158.13
2023-05-19T06:07:55.903Z,102159.00
2023-05-19T06:10:26.986Z,102149.81
2023-05-19T06:12:57.455Z,102154.63
2023-05-19T06:15:26.488Z,102155.22
2023-05-19T06:18:11.850Z,102159.38
2023-05-19T06:20:40.845Z,102161.38
2023-05-19T06:23:09.362Z,102154.66
2023-05-19T06:25:37.102Z,102160.19
2023-05-19T06:28:07.788Z,102158.59
2023-05-19T06:30:36.691Z,102164.31
2023-05-19T06:33:17.988Z,102157.78
2023-05-19T06:35:45.662Z,102160.50
2023-05-19T06:38:13.598Z,102153.00
2023-05-19T06:40:41.535Z,102159.97
2023-05-19T06:43:10.757Z,102152.97
2023-05-19T06:45:58.237Z,102153.28
2023-05-19T06:48:29.593Z,102158.81
2023-05-19T06:50:57.465Z,102157.00
2023-05-19T06:53:25.846Z,102155.59
2023-05-19T06:56:00.051Z,102157.31
2023-05-19T06:58:33.312Z,102165.75
2023-05-19T07:01:05.204Z,102164.22
2023-05-19T07:03:42.377Z,102159.09
2023-05-19T07:06:11.767Z,102162.09
2023-05-19T07:08:39.513Z,102160.97
2023-05-19T07:11:08.796Z,102161.16
2023-05-19T07:13:37.901Z,102158.97
2023-05-19T07:16:05.904Z,102151.25
2023-05-19T07:18:34.318Z,102164.28
2023-05-19T07:21:02.044Z,102156.81
2023-05-19T07:23:32.434Z,102159.31
2023-05-19T07:26:00.233Z,102161.41
2023-05-19T07:28:27.939Z,102163.31
2023-05-19T07:30:57.010Z,102153.34
2023-05-19T07:33:24.720Z,102161.63
2023-05-19T07:35:52.495Z,102156.28
2023-05-19T07:38:20.152Z,102154.75
2023-05-19T07:40:47.833Z,102154.50
2023-05-19T07:43:15.584Z,102153.50
2023-05-19T07:45:43.312Z,102160.25
2023-05-19T07:48:12.558Z,102155.50
2023-05-19T07:50:40.845Z,102144.56
2023-05-19T07:53:09.605Z,102147.22
2023-05-19T07:55:37.315Z,102148.03
2023-05-19T07:58:04.966Z,102144.56
2023-05-19T08:00:33.036Z,102151.88
2023-05-19T08:03:01.812Z,102145.31
2023-05-19T08:05:30.943Z,102143.78
2023-05-19T08:07:58.781Z,102151.22
2023-05-19T08:10:26.461Z,102135.44
2023-05-19T08:12:54.370Z,102142.44
2023-05-19T08:15:22.054Z,102134.31
2023-05-19T08:17:50.024Z,102142.19
2023-05-19T08:20:17.935Z,102138.63
2023-05-19T08:22:46.943Z,102143.69
2023-05-19T08:25:14.968Z,102140.31
2023-05-19T08:27:42.649Z,102146.63
2023-05-19T08:30:10.932Z,102155.13
2023-05-19T08:32:38.695Z,102149.19
2023-05-19T08:35:06.637Z,102151.34
2023-05-19T08:37:37.037Z,102145.31
2023-05-19T08:40:07.122Z,102146.66
2023-05-19T08:42:34.856Z,102144.13
2023-05-19T08:45:03.212Z,102143.66
2023-05-19T08:47:31.082Z,102145.13
2023-05-19T08:50:00.196Z,102139.72
2023-05-19T08:52:29.099Z,102141.13
2023-05-19T08:55:03.633Z,102133.97
2023-05-19T08:57:34.130Z,102132.69
2023-05-19T09:00:01.798Z,102135.53
2023-05-19T09:02:29.526Z,102121.28
2023-05-19T09:04:57.609Z,102109.81
2023-05-19T09:07:26.779Z,102110.69
2023-05-19T09:09:54.976Z,102113.47
2023-05-19T09:12:22.654Z,102109.34
2023-05-19T09:14:51.884Z,102107.25
2023-05-19T09:17:19.853Z,102109.91
2023-05-19T09:19:49.568Z,102099.31
2023-05-19T09:22:19.112Z,102105.50
2023-05-19T09:24:46.761Z,102100.84
2023-05-19T09:27:15.508Z,102097.53
2023-05-19T09:29:43.549Z,102098.50
2023-05-19T09:32:12.642Z,102093.75
2023-05-19T09:34:41.652Z,102096.97
2023-05-19T09:37:09.436Z,102092.22
2023-05-19T09:39:37.070Z,102089.94
2023-05-19T09:42:05.601Z,102091.19
2023-05-19T09:44:33.742Z,102081.22
2023-05-19T09:47:02.175Z,102090.63
2023-05-19T09:49:32.683Z,102093.19
2023-05-19T09:52:00.776Z,102084.91
2023-05-19T09:54:29.679Z,102090.31
2023-05-19T09:57:00.873Z,102080.88
2023-05-19T09:59:32.336Z,102081.22
2023-05-19T10:02:02.200Z,102083.91
2023-05-19T10:04:31.622Z,102073.06
2023-05-19T10:07:00.394Z,102071.84
2023-05-19T10:09:28.722Z,102066.81
2023-05-19T10:11:56.695Z,102071.28
2023-05-19T10:14:24.879Z,102069.34
2023-05-19T10:16:52.892Z,102061.25
2023-05-19T10:19:21.875Z,102067.88
2023-05-19T10:21:51.435Z,102056.13
2023-05-19T10:24:19.432Z,102068.06
2023-05-19T10:26:48.308Z,102056.09
2023-05-19T10:29:16.807Z,102062.91
2023-05-19T10:31:46.512Z,102064.28
2023-05-19T10:34:22.389Z,102058.16
2023-05-19T10:36:53.972Z,102053.06
2023-05-19T10:39:26.306Z,102050.81
2023-05-19T10:41:55.493Z,102066.28
2023-05-19T10:44:26.771Z,102053.31
2023-05-19T10:46:56.742Z,102052.88
2023-05-19T10:49:24.913Z,102061.22
2023-05-19T10:51:55.155Z,102045.41
2023-05-19T10:54:38.996Z,102035.09
2023-05-19T10:57:07.063Z,102044.44
2023-05-19T10:59:40.969Z,102035.59
2023-05-19T11:02:10.954Z,102038.22
2023-05-19T11:04:40.512Z,102036.22
2023-05-19T11:07:11.345Z,102039.13
2023-05-19T11:09:41.454Z,102044.44
2023-05-19T11:12:10.562Z,102041.69
2023-05-19T11:14:39.166Z,102034.56
2023-05-19T11:17:07.897Z,102039.75
2023-05-19T11:19:36.167Z,102027.22
2023-05-19T11:22:11.284Z,102036.53
2023-05-19T11:24:39.982Z,102031.97
2023-05-19T11:27:24.260Z,102032.38
2023-05-19T11:29:52.281Z,102029.13
2023-05-19T11:32:21.412Z,102021.25
2023-05-19T11:34:49.422Z,102021.34
2023-05-19T11:37:20.568Z,102020.13
2023-05-19T11:39:48.558Z,102016.59
2023-05-19T11:42:16.376Z,102015.09
2023-05-19T11:44:46.152Z,102019.13
2023-05-19T11:47:14.035Z,102018.34
2023-05-19T11:49:44.045Z,102022.78
2023-05-19T11:52:11.716Z,102015.97
2023-05-19T11:54:41.946Z,102020.41
2023-05-19T11:57:09.757Z,102011.47
2023-05-19T11:59:37.822Z,102020.25
2023-05-19T12:02:16.818Z,102021.53
2023-05-19T12:04:44.646Z,102012.16
2023-05-19T12:07:12.411Z,102027.03
2023-05-19T12:09:41.613Z,102015.56
2023-05-19T12:12:09.524Z,102009.88
2023-05-19T12:14:37.290Z,102012.44
2023-05-19T12:17:11.287Z,102017.28
2023-05-19T12:19:39.554Z,102021.09
2023-05-19T12:22:07.571Z,102020.34
2023-05-19T12:24:35.362Z,102007.63
2023-05-19T12:27:10.936Z,102009.00
2023-05-19T12:29:39.520Z,102014.31
2023-05-19T12:32:08.009Z,102010.50
2023-05-19T12:34:36.553Z,102007.47
2023-05-19T12:37:04.638Z,101998.88
2023-05-19T12:39:32.398Z,102008.63
2023-05-19T12:42:03.808Z,102009.56
2023-05-19T12:44:32.910Z,101986.94
2023-05-19T12:47:01.789Z,101998.22
2023-05-19T12:49:29.480Z,101986.28
2023-05-19T12:51:57.168Z,102003.94
2023-05-19T12:54:25.024Z,101999.88
2023-05-19T12:56:52.822Z,101998.38
2023-05-19T12:59:30.974Z,101988.25
2023-05-19T13:02:10.234Z,101994.16
2023-05-19T13:04:38.613Z,101984.81
2023-05-19T13:07:09.130Z,101990.72
2023-05-19T13:09:36.810Z,101989.72
2023-05-19T13:12:06.565Z,101981.09
2023-05-19T13:14:34.268Z,101988.72
2023-05-19T13:17:02.161Z,101980.31
2023-05-19T13:19:31.415Z,101987.56
2023-05-19T13:21:59.172Z,101985.53
2023-05-19T13:24:26.912Z,101977.41
2023-05-19T13:26:55.909Z,101981.31
2023-05-19T13:29:23.918Z,101976.25
2023-05-19T13:31:51.728Z,101973.63
2023-05-19T13:34:19.699Z,101981.06
2023-05-19T13:36:49.989Z,101967.63
2023-05-19T13:39:17.774Z,101967.97
2023-05-19T13:41:45.559Z,101964.34
2023-05-19T13:44:13.224Z,101970.00
2023-05-19T13:46:45.670Z,101965.25
2023-05-19T13:49:14.558Z,101958.56
2023-05-19T13:51:45.009Z,101962.03
2023-05-19T13:54:14.026Z,101961.13
2023-05-19T13:56:43.092Z,101963.03
2023-05-19T13:59:10.843Z,101982.22
2023-05-19T14:01:38.578Z,101984.38
2023-05-19T14:04:07.113Z,101975.78
2023-05-19T14:06:34.887Z,101981.69
2023-05-19T14:09:02.613Z,101973.69
2023-05-19T14:11:31.622Z,101967.47
2023-05-19T14:13:59.330Z,101971.81
2023-05-19T14:16:28.697Z,101977.97
2023-05-19T14:18:56.476Z,101971.28
2023-05-19T14:21:24.214Z,101967.31
2023-05-19T14:23:51.904Z,101978.34
2023-05-19T14:26:19.721Z,101973.69
2023-05-19T14:28:48.758Z,101967.47
2023-05-19T14:31:16.471Z,101964.16
2023-05-19T14:33:44.260Z,101968.34
2023-05-19T14:36:12.017Z,101968.28
2023-05-19T14:38:39.764Z,101983.81
2023-05-19T14:41:09.995Z,101984.28
2023-05-19T14:43:38.337Z,101989.31
2023-05-19T14:46:07.501Z,101976.00
2023-05-19T14:48:35.165Z,101972.31
2023-05-19T14:51:02.824Z,101982.09
2023-05-19T14:53:30.487Z,101970.00
2023-05-19T14:55:58.175Z,101972.16
2023-05-19T14:58:28.320Z,101986.91
2023-05-19T15:00:58.404Z,101989.69
2023-05-19T15:03:27.448Z,101973.78
2023-05-19T15:05:55.212Z,101971.03
2023-05-19T15:08:23.458Z,101972.53
2023-05-19T15:10:51.415Z,101980.03
2023-05-19T15:13:21.364Z,101972.66
2023-05-19T15:15:49.065Z,101974.47
2023-05-19T15:18:18.580Z,101972.69
2023-05-19T15:20:47.663Z,101969.66
2023-05-19T15:23:15.404Z,101965.97
2023-05-19T15:25:43.056Z,101975.72
2023-05-19T15:28:10.748Z,101976.81
2023-05-19T15:30:38.639Z,101980.97
2023-05-19T15:33:06.452Z,101968.19
2023-05-19T15:35:34.123Z,101969.44
2023-05-19T15:38:06.258Z,101969.81
2023-05-19T15:40:34.430Z,101959.59
2023-05-19T15:43:02.317Z,101970.88
2023-05-19T15:45:30.181Z,101968.44
2023-05-19T15:47:57.929Z,101970.38
2023-05-19T15:50:26.752Z,101973.00
2023-05-19T15:52:54.436Z,101967.78
2023-05-19T15:55:24.717Z,101975.03
2023-05-19T15:57:52.420Z,101965.44
2023-05-19T16:00:20.420Z,101968.38
2023-05-19T16:02:48.325Z,101972.66
2023-05-19T16:05:16.688Z,101976.88
2023-05-19T16:07:44.433Z,101961.69
2023-05-19T16:10:12.126Z,101960.03
2023-05-19T16:12:41.178Z,101966.63
2023-05-19T16:15:12.017Z,101963.16
2023-05-19T16:17:40.857Z,101957.69
2023-05-19T16:20:09.227Z,101955.91
2023-05-19T16:22:36.939Z,101950.75
2023-05-19T16:25:04.944Z,101957.50
2023-05-19T16:27:32.632Z,101955.56
2023-05-19T16:30:02.548Z,101947.69
2023-05-19T16:32:30.385Z,101951.25
2023-05-19T16:34:58.093Z,101951.88
2023-05-19T16:37:25.855Z,101945.25
2023-05-19T16:39:53.521Z,101946.00
2023-05-19T16:42:21.186Z,101954.72
2023-05-19T16:44:48.954Z,101961.53
2023-05-19T16:47:17.882Z,101963.25
2023-05-19T16:49:45.555Z,101958.94
2023-05-19T16:52:13.239Z,101954.47
2023-05-19T16:54:40.861Z,101955.56
2023-05-19T16:57:08.549Z,101947.44
2023-05-19T16:59:36.246Z,101950.69
2023-05-19T17:02:04.043Z,101953.47
2023-05-19T17:04:33.147Z,101956.09
2023-05-19T17:07:00.801Z,101956.19
2023-05-19T17:09:28.483Z,101948.00
2023-05-19T17:11:56.450Z,101954.97
2023-05-19T17:14:24.108Z,101958.41
2023-05-19T17:16:52.444Z,101956.09
2023-05-19T17:19:20.191Z,101967.41
2023-05-19T17:21:49.276Z,101952.06
2023-05-19T17:24:16.957Z,101959.84
2023-05-19T17:26:44.575Z,101964.44
2023-05-19T17:29:14.282Z,101959.25
2023-05-19T17:31:42.240Z,101946.59
2023-05-19T17:34:09.906Z,101959.03
2023-05-19T17:36:37.638Z,101962.47
2023-05-19T17:39:06.669Z,101954.78
2023-05-19T17:41:34.346Z,101973.72
2023-05-19T17:44:01.961Z,101974.53
2023-05-19T17:46:34.490Z,101975.66
2023-05-19T17:49:02.260Z,101971.38
2023-05-19T17:51:30.277Z,101974.50
2023-05-19T17:53:58.250Z,101976.03
2023-05-19T17:56:27.389Z,101976.31
2023-05-19T17:58:55.370Z,101972.19
2023-05-19T18:01:27.111Z,101973.44
2023-05-19T18:03:55.253Z,101980.97
2023-05-19T18:06:23.552Z,101982.44
2023-05-19T18:08:51.789Z,101973.97
2023-05-19T18:11:19.754Z,101972.31
2023-05-19T18:13:48.763Z,101972.91
2023-05-19T18:16:16.715Z,101972.13
2023-05-19T18:18:46.996Z,101974.41
2023-05-19T18:21:17.805Z,101972.91
2023-05-19T18:23:45.647Z,101978.09
2023-05-19T18:26:14.171Z,101979.59
2023-05-19T18:28:41.852Z,101977.03
2023-05-19T18:31:15.716Z,101976.75
2023-05-19T18:33:43.523Z,101987.22
2023-05-19T18:36:11.172Z,101972.31
2023-05-19T18:38:39.001Z,101976.50
2023-05-19T18:41:07.570Z,101978.63
2023-05-19T18:43:35.375Z,101976.41
2023-05-19T18:46:03.070Z,101986.69
2023-05-19T18:48:34.153Z,101991.22
2023-05-19T18:51:03.766Z,101988.56
2023-05-19T18:53:32.195Z,101997.91
2023-05-19T18:55:59.833Z,101995.88
2023-05-19T18:58:27.435Z,101996.63
2023-05-19T19:00:55.603Z,101992.09
2023-05-19T19:03:23.531Z,102001.16
2023-05-19T19:05:56.109Z,101994.75
2023-05-19T19:08:23.814Z,102003.50
2023-05-19T19:10:51.768Z,101995.00
2023-05-19T19:13:19.554Z,101994.75
2023-05-19T19:15:47.208Z,101994.22
2023-05-19T19:18:14.876Z,102000.88
2023-05-19T19:20:42.571Z,102000.91
2023-05-19T19:23:12.128Z,101999.66
2023-05-19T19:25:43.035Z,102006.50
2023-05-19T19:28:11.279Z,102007.16
2023-05-19T19:30:38.969Z,102010.09
2023-05-19T19:33:07.049Z,102012.66
2023-05-19T19:35:34.934Z,102014.28
2023-05-19T19:38:05.679Z,102009.28
2023-05-19T19:40:35.038Z,102012.81
2023-05-19T19:43:02.994Z,102009.53
2023-05-19T19:45:30.815Z,102021.03
2023-05-19T19:47:58.509Z,102006.69
2023-05-19T19:50:26.163Z,102009.81
2023-05-19T19:52:54.105Z,102003.97
2023-05-19T19:55:21.877Z,102008.91
2023-05-19T19:57:51.295Z,102011.31
2023-05-19T20:00:19.617Z,102014.78
2023-05-19T20:03:03.553Z,102022.81
2023-05-19T20:05:32.457Z,102013.44
2023-05-19T20:08:00.262Z,102009.41
2023-05-19T20:10:27.925Z,102017.31
2023-05-19T20:12:58.792Z,102014.19
2023-05-19T20:15:26.699Z,102020.03
2023-05-19T20:17:54.449Z,102020.75
2023-05-19T20:20:22.250Z,102022.47
2023-05-19T20:22:49.994Z,102022.34
2023-05-19T20:25:17.657Z,102012.66
2023-05-19T20:27:48.653Z,102025.75
2023-05-19T20:30:17.720Z,102021.53
2023-05-19T20:32:47.769Z,102028.53
2023-05-19T20:35:15.466Z,102028.72
2023-05-19T20:37:43.137Z,102041.56
2023-05-19T20:40:13.637Z,102033.06
2023-05-19T20:42:41.552Z,102042.28
2023-05-19T20:45:09.457Z,102034.66
2023-05-19T20:47:38.656Z,102040.50
2023-05-19T20:50:06.889Z,102042.03
2023-05-19T20:52:34.570Z,102038.63
2023-05-19T20:55:02.269Z,102049.06
2023-05-19T20:57:30.002Z,102045.03
2023-05-19T20:59:57.666Z,102041.00
2023-05-19T21:02:25.396Z,102048.44
2023-05-19T21:04:54.458Z,102037.78
2023-05-19T21:07:22.469Z,102027.38
2023-05-19T21:09:51.535Z,102037.16
2023-05-19T21:12:23.585Z,102034.44
2023-05-19T21:14:51.254Z,102039.38
2023-05-19T21:17:21.125Z,102038.59
2023-05-19T21:19:50.570Z,102041.56
2023-05-19T21:22:19.892Z,102047.56
2023-05-19T21:24:47.571Z,102038.22
2023-05-19T21:27:15.254Z,102045.97
2023-05-19T21:29:46.014Z,102051.22
2023-05-19T21:32:14.042Z,102052.53
2023-05-19T21:34:41.718Z,102050.13
2023-05-19T21:37:09.542Z,102055.94
2023-05-19T21:39:38.661Z,102063.88
2023-05-19T21:42:06.807Z,102057.41
2023-05-19T21:44:34.461Z,102057.25
2023-05-19T21:47:02.179Z,102069.28
2023-05-19T21:49:29.893Z,102067.31
2023-05-19T21:51:57.566Z,102070.94
2023-05-19T21:54:25.236Z,102070.25
2023-05-19T21:56:54.318Z,102074.56
2023-05-19T21:59:23.212Z,102065.34
2023-05-19T22:01:51.054Z,102074.09
2023-05-19T22:04:18.969Z,102070.28
2023-05-19T22:06:46.682Z,102067.72
2023-05-19T22:09:14.371Z,102076.91
2023-05-19T22:11:42.015Z,102068.06
2023-05-19T22:14:11.119Z,102066.63
2023-05-19T22:16:38.853Z,102073.03
2023-05-19T22:19:06.667Z,102066.63
2023-05-19T22:21:34.367Z,102064.56
2023-05-19T22:24:02.057Z,102076.19
2023-05-19T22:26:29.846Z,102076.59
2023-05-19T22:28:57.674Z,102073.53
2023-05-19T22:31:26.715Z,102078.38
2023-05-19T22:33:54.605Z,102075.16
2023-05-19T22:36:22.313Z,102070.28
2023-05-19T22:38:50.025Z,102075.13
2023-05-19T22:41:17.690Z,102082.50
2023-05-19T22:43:45.339Z,102081.03
2023-05-19T22:46:13.296Z,102083.44
2023-05-19T22:48:42.264Z,102094.31
2023-05-19T22:51:09.885Z,102086.13
2023-05-19T22:53:37.548Z,102087.41
2023-05-19T22:56:05.468Z,102085.50
2023-05-19T22:58:33.172Z,102085.94
2023-05-19T23:01:01.085Z,102081.63
2023-05-19T23:03:28.755Z,102083.72
2023-05-19T23:05:57.845Z,102081.69
2023-05-19T23:08:25.477Z,102082.06
2023-05-19T23:10:53.147Z,102081.56
2023-05-19T23:13:20.806Z,102082.75
2023-05-19T23:15:49.673Z,102081.09
2023-05-19T23:18:17.320Z,102081.03
2023-05-19T23:20:44.976Z,102074.78
2023-05-19T23:23:13.963Z,102074.94
2023-05-19T23:25:41.658Z,102076.69
2023-05-19T23:28:10.406Z,102076.63
2023-05-19T23:30:38.359Z,102070.41
2023-05-19T23:33:06.080Z,102075.03
2023-05-19T23:35:34.012Z,102070.22
2023-05-19T23:38:01.820Z,102074.50
2023-05-19T23:40:30.901Z,102062.56
2023-05-19T23:42:58.685Z,102058.91
2023-05-19T23:45:26.391Z,102070.13
2023-05-19T23:47:54.088Z,102062.47
2023-05-19T23:50:22.200Z,102064.91
2023-05-19T23:52:49.821Z,102062.47
2023-05-19T23:55:18.824Z,102056.03
2023-05-19T23:57:47.834Z,102056.22
